< < Back
Terminal Aerodrome Forecast


Current Version              Previous Versions:   1  2  3  4  5  6  7  8  9  

Terminal Aerodrome Forecast

332
FTUS42 KTAE 282320
TAFDHN
TAF
KDHN 282320Z 2900/2924 29006KT P6SM VCTS BKN050CB
      TEMPO 2900/2902 19010KT 3SM TS BKN040CB
     FM290300 25004KT P6SM BKN250
     FM292000 32006KT P6SM VCTS BKN050CB=

Latest METAR

262
SAUS70 KWBC 291400 RRK
MTRDHN
METAR KDHN 291353Z 00000KT 10SM SCT012 27/23 A3003 RMK AO2 SLP161
T02670233


USA.gov is the U.S. government's official web portal to all federal, state and local government web resources and services.